sensor_id;sensor_type;location;lat;lon;timestamp;P1;durP1;ratioP1;P2;durP2;ratioP2
19358;SDS011;9815;52.334;20.890;2022-12-07T00:01:42;36.93;;;17.47;;
19358;SDS011;9815;52.334;20.890;2022-12-07T00:04:13;41.97;;;18.50;;
19358;SDS011;9815;52.334;20.890;2022-12-07T00:06:44;40.77;;;17.83;;
19358;SDS011;9815;52.334;20.890;2022-12-07T00:09:14;42.50;;;17.67;;
19358;SDS011;9815;52.334;20.890;2022-12-07T00:11:44;44.07;;;19.03;;
19358;SDS011;9815;52.334;20.890;2022-12-07T00:14:15;40.80;;;18.17;;
19358;SDS011;9815;52.334;20.890;2022-12-07T00:16:43;37.43;;;17.50;;
19358;SDS011;9815;52.334;20.890;2022-12-07T00:19:12;42.97;;;18.27;;
19358;SDS011;9815;52.334;20.890;2022-12-07T00:21:41;40.37;;;18.33;;
19358;SDS011;9815;52.334;20.890;2022-12-07T00:24:10;46.60;;;19.80;;
19358;SDS011;9815;52.334;20.890;2022-12-07T00:26:39;45.43;;;19.27;;
19358;SDS011;9815;52.334;20.890;2022-12-07T00:29:09;52.63;;;20.40;;
19358;SDS011;9815;52.334;20.890;2022-12-07T00:31:42;45.03;;;18.97;;
19358;SDS011;9815;52.334;20.890;2022-12-07T00:34:12;45.00;;;19.93;;
19358;SDS011;9815;52.334;20.890;2022-12-07T00:36:41;51.37;;;21.60;;
19358;SDS011;9815;52.334;20.890;2022-12-07T00:39:10;47.90;;;20.83;;
19358;SDS011;9815;52.334;20.890;2022-12-07T00:41:38;53.20;;;22.57;;
19358;SDS011;9815;52.334;20.890;2022-12-07T00:44:06;56.23;;;21.97;;
19358;SDS011;9815;52.334;20.890;2022-12-07T00:46:34;51.10;;;21.43;;
19358;SDS011;9815;52.334;20.890;2022-12-07T00:49:02;67.60;;;24.93;;
19358;SDS011;9815;52.334;20.890;2022-12-07T00:51:30;63.40;;;24.73;;
19358;SDS011;9815;52.334;20.890;2022-12-07T00:53:58;70.67;;;25.73;;
19358;SDS011;9815;52.334;20.890;2022-12-07T00:56:28;65.73;;;25.77;;
19358;SDS011;9815;52.334;20.890;2022-12-07T00:58:57;71.87;;;27.30;;
19358;SDS011;9815;52.334;20.890;2022-12-07T01:01:27;81.73;;;28.43;;
19358;SDS011;9815;52.334;20.890;2022-12-07T01:03:56;75.40;;;27.40;;
19358;SDS011;9815;52.334;20.890;2022-12-07T01:06:24;79.73;;;28.80;;
19358;SDS011;9815;52.334;20.890;2022-12-07T01:08:53;79.47;;;28.80;;
19358;SDS011;9815;52.334;20.890;2022-12-07T01:11:21;72.07;;;28.67;;
19358;SDS011;9815;52.334;20.890;2022-12-07T01:13:52;78.07;;;29.33;;
19358;SDS011;9815;52.334;20.890;2022-12-07T01:16:22;77.53;;;29.43;;
19358;SDS011;9815;52.334;20.890;2022-12-07T01:18:52;78.07;;;28.47;;
19358;SDS011;9815;52.334;20.890;2022-12-07T01:21:23;80.23;;;28.83;;
19358;SDS011;9815;52.334;20.890;2022-12-07T01:23:52;88.97;;;30.67;;
19358;SDS011;9815;52.334;20.890;2022-12-07T01:26:21;75.90;;;28.93;;
19358;SDS011;9815;52.334;20.890;2022-12-07T01:28:52;84.37;;;30.17;;
19358;SDS011;9815;52.334;20.890;2022-12-07T01:31:22;79.43;;;28.70;;
19358;SDS011;9815;52.334;20.890;2022-12-07T01:33:52;76.53;;;28.57;;
19358;SDS011;9815;52.334;20.890;2022-12-07T01:36:22;74.70;;;27.23;;
19358;SDS011;9815;52.334;20.890;2022-12-07T01:38:53;79.03;;;29.07;;
19358;SDS011;9815;52.334;20.890;2022-12-07T01:41:23;72.80;;;27.80;;
19358;SDS011;9815;52.334;20.890;2022-12-07T01:44:11;72.67;;;28.47;;
19358;SDS011;9815;52.334;20.890;2022-12-07T01:46:46;73.73;;;27.80;;
19358;SDS011;9815;52.334;20.890;2022-12-07T01:49:17;74.20;;;28.03;;
19358;SDS011;9815;52.334;20.890;2022-12-07T01:51:49;72.50;;;27.23;;
19358;SDS011;9815;52.334;20.890;2022-12-07T01:54:20;73.23;;;27.83;;
19358;SDS011;9815;52.334;20.890;2022-12-07T01:56:50;74.17;;;26.63;;
19358;SDS011;9815;52.334;20.890;2022-12-07T01:59:23;67.20;;;26.33;;
19358;SDS011;9815;52.334;20.890;2022-12-07T02:01:53;65.20;;;25.90;;
19358;SDS011;9815;52.334;20.890;2022-12-07T02:04:22;62.67;;;24.93;;
19358;SDS011;9815;52.334;20.890;2022-12-07T02:06:51;65.43;;;25.17;;
19358;SDS011;9815;52.334;20.890;2022-12-07T02:09:22;61.30;;;23.33;;
19358;SDS011;9815;52.334;20.890;2022-12-07T02:11:50;55.80;;;23.23;;
19358;SDS011;9815;52.334;20.890;2022-12-07T02:14:19;54.60;;;23.67;;
19358;SDS011;9815;52.334;20.890;2022-12-07T02:16:53;60.80;;;22.53;;
19358;SDS011;9815;52.334;20.890;2022-12-07T02:22:36;46.77;;;19.93;;
19358;SDS011;9815;52.334;20.890;2022-12-07T02:25:22;43.23;;;18.87;;
19358;SDS011;9815;52.334;20.890;2022-12-07T02:28:04;45.30;;;17.77;;
19358;SDS011;9815;52.334;20.890;2022-12-07T02:30:37;50.20;;;19.60;;
19358;SDS011;9815;52.334;20.890;2022-12-07T02:33:13;45.13;;;18.03;;
19358;SDS011;9815;52.334;20.890;2022-12-07T02:35:44;39.27;;;17.50;;
19358;SDS011;9815;52.334;20.890;2022-12-07T02:38:18;39.00;;;17.33;;
19358;SDS011;9815;52.334;20.890;2022-12-07T02:40:53;39.63;;;17.23;;
19358;SDS011;9815;52.334;20.890;2022-12-07T02:43:25;39.73;;;17.13;;
19358;SDS011;9815;52.334;20.890;2022-12-07T02:45:58;39.13;;;17.13;;
19358;SDS011;9815;52.334;20.890;2022-12-07T02:48:31;39.57;;;16.73;;
19358;SDS011;9815;52.334;20.890;2022-12-07T02:51:01;36.47;;;16.33;;
19358;SDS011;9815;52.334;20.890;2022-12-07T02:53:30;33.30;;;16.37;;
19358;SDS011;9815;52.334;20.890;2022-12-07T02:55:59;40.57;;;15.00;;
19358;SDS011;9815;52.334;20.890;2022-12-07T02:58:36;40.60;;;15.77;;
19358;SDS011;9815;52.334;20.890;2022-12-07T03:01:15;35.30;;;15.17;;
19358;SDS011;9815;52.334;20.890;2022-12-07T03:03:57;36.07;;;15.43;;
19358;SDS011;9815;52.334;20.890;2022-12-07T03:06:37;35.10;;;15.33;;
19358;SDS011;9815;52.334;20.890;2022-12-07T03:09:12;33.37;;;14.70;;
19358;SDS011;9815;52.334;20.890;2022-12-07T03:11:48;31.70;;;14.30;;
19358;SDS011;9815;52.334;20.890;2022-12-07T03:14:22;31.03;;;13.80;;
19358;SDS011;9815;52.334;20.890;2022-12-07T03:16:58;28.87;;;13.50;;
19358;SDS011;9815;52.334;20.890;2022-12-07T03:19:33;29.50;;;13.20;;
19358;SDS011;9815;52.334;20.890;2022-12-07T03:22:05;28.00;;;13.53;;
19358;SDS011;9815;52.334;20.890;2022-12-07T03:24:37;28.53;;;13.13;;
19358;SDS011;9815;52.334;20.890;2022-12-07T03:27:09;29.37;;;13.50;;
19358;SDS011;9815;52.334;20.890;2022-12-07T03:29:44;29.10;;;12.93;;
19358;SDS011;9815;52.334;20.890;2022-12-07T03:32:19;24.93;;;11.63;;
19358;SDS011;9815;52.334;20.890;2022-12-07T03:34:52;29.60;;;12.73;;
19358;SDS011;9815;52.334;20.890;2022-12-07T03:37:26;23.73;;;12.03;;
19358;SDS011;9815;52.334;20.890;2022-12-07T03:39:59;27.40;;;12.00;;
19358;SDS011;9815;52.334;20.890;2022-12-07T03:42:34;24.77;;;12.03;;
19358;SDS011;9815;52.334;20.890;2022-12-07T03:45:03;31.20;;;11.90;;
19358;SDS011;9815;52.334;20.890;2022-12-07T03:47:35;23.97;;;11.70;;
19358;SDS011;9815;52.334;20.890;2022-12-07T03:50:10;25.03;;;11.83;;
19358;SDS011;9815;52.334;20.890;2022-12-07T03:52:44;22.00;;;10.97;;
19358;SDS011;9815;52.334;20.890;2022-12-07T03:55:17;22.83;;;11.53;;
19358;SDS011;9815;52.334;20.890;2022-12-07T03:57:51;28.77;;;11.37;;
19358;SDS011;9815;52.334;20.890;2022-12-07T04:00:22;22.37;;;11.07;;
19358;SDS011;9815;52.334;20.890;2022-12-07T04:02:52;21.03;;;10.83;;
19358;SDS011;9815;52.334;20.890;2022-12-07T04:05:21;25.23;;;11.53;;
19358;SDS011;9815;52.334;20.890;2022-12-07T04:07:49;23.80;;;10.57;;
19358;SDS011;9815;52.334;20.890;2022-12-07T04:10:18;20.83;;;10.33;;
19358;SDS011;9815;52.334;20.890;2022-12-07T04:12:46;25.40;;;11.03;;
19358;SDS011;9815;52.334;20.890;2022-12-07T04:15:14;29.30;;;12.43;;
19358;SDS011;9815;52.334;20.890;2022-12-07T04:17:42;25.17;;;11.03;;
19358;SDS011;9815;52.334;20.890;2022-12-07T04:20:12;25.53;;;11.73;;
19358;SDS011;9815;52.334;20.890;2022-12-07T04:22:40;22.93;;;10.83;;
19358;SDS011;9815;52.334;20.890;2022-12-07T04:25:09;23.13;;;11.73;;
19358;SDS011;9815;52.334;20.890;2022-12-07T04:27:37;20.20;;;11.07;;
19358;SDS011;9815;52.334;20.890;2022-12-07T04:30:05;21.93;;;11.23;;
19358;SDS011;9815;52.334;20.890;2022-12-07T04:32:34;23.57;;;11.37;;
19358;SDS011;9815;52.334;20.890;2022-12-07T04:35:03;20.07;;;11.70;;
19358;SDS011;9815;52.334;20.890;2022-12-07T04:37:33;24.70;;;11.27;;
19358;SDS011;9815;52.334;20.890;2022-12-07T04:40:02;24.60;;;11.60;;
19358;SDS011;9815;52.334;20.890;2022-12-07T05:00:22;23.10;;;11.30;;
19358;SDS011;9815;52.334;20.890;2022-12-07T05:02:51;20.50;;;11.47;;
19358;SDS011;9815;52.334;20.890;2022-12-07T05:05:19;20.87;;;11.17;;
19358;SDS011;9815;52.334;20.890;2022-12-07T05:07:47;24.03;;;11.83;;
19358;SDS011;9815;52.334;20.890;2022-12-07T05:10:15;21.97;;;11.70;;
19358;SDS011;9815;52.334;20.890;2022-12-07T05:12:43;21.70;;;12.03;;
19358;SDS011;9815;52.334;20.890;2022-12-07T05:15:12;23.93;;;11.70;;
19358;SDS011;9815;52.334;20.890;2022-12-07T05:17:42;23.00;;;11.57;;
19358;SDS011;9815;52.334;20.890;2022-12-07T05:20:10;24.20;;;11.60;;
19358;SDS011;9815;52.334;20.890;2022-12-07T05:22:39;22.30;;;11.50;;
19358;SDS011;9815;52.334;20.890;2022-12-07T05:25:07;27.53;;;12.00;;
19358;SDS011;9815;52.334;20.890;2022-12-07T05:27:36;30.20;;;13.27;;
19358;SDS011;9815;52.334;20.890;2022-12-07T05:30:05;42.70;;;16.00;;
19358;SDS011;9815;52.334;20.890;2022-12-07T05:32:34;41.63;;;17.13;;
19358;SDS011;9815;52.334;20.890;2022-12-07T05:35:04;40.10;;;16.73;;
19358;SDS011;9815;52.334;20.890;2022-12-07T05:37:32;40.63;;;17.30;;
19358;SDS011;9815;52.334;20.890;2022-12-07T05:40:00;30.63;;;15.13;;
19358;SDS011;9815;52.334;20.890;2022-12-07T05:42:29;29.23;;;14.00;;
19358;SDS011;9815;52.334;20.890;2022-12-07T05:44:57;32.00;;;13.23;;
19358;SDS011;9815;52.334;20.890;2022-12-07T05:47:25;27.30;;;14.37;;
19358;SDS011;9815;52.334;20.890;2022-12-07T05:49:53;28.73;;;13.17;;
19358;SDS011;9815;52.334;20.890;2022-12-07T05:52:23;32.03;;;13.47;;
19358;SDS011;9815;52.334;20.890;2022-12-07T05:54:52;29.93;;;14.03;;
19358;SDS011;9815;52.334;20.890;2022-12-07T05:57:20;31.93;;;13.67;;
19358;SDS011;9815;52.334;20.890;2022-12-07T05:59:48;26.03;;;12.60;;
19358;SDS011;9815;52.334;20.890;2022-12-07T06:02:15;26.10;;;12.73;;
19358;SDS011;9815;52.334;20.890;2022-12-07T06:04:45;27.40;;;12.17;;
19358;SDS011;9815;52.334;20.890;2022-12-07T06:07:14;27.67;;;13.10;;
19358;SDS011;9815;52.334;20.890;2022-12-07T06:09:45;31.60;;;12.90;;
19358;SDS011;9815;52.334;20.890;2022-12-07T06:12:13;41.77;;;15.93;;
19358;SDS011;9815;52.334;20.890;2022-12-07T06:14:59;32.00;;;15.57;;
19358;SDS011;9815;52.334;20.890;2022-12-07T06:17:27;35.00;;;15.73;;
19358;SDS011;9815;52.334;20.890;2022-12-07T06:19:56;33.50;;;15.47;;
19358;SDS011;9815;52.334;20.890;2022-12-07T06:22:25;36.53;;;14.87;;
19358;SDS011;9815;52.334;20.890;2022-12-07T06:24:55;34.43;;;14.33;;
19358;SDS011;9815;52.334;20.890;2022-12-07T06:27:23;24.47;;;12.60;;
19358;SDS011;9815;52.334;20.890;2022-12-07T06:29:51;24.87;;;11.17;;
19358;SDS011;9815;52.334;20.890;2022-12-07T06:32:19;25.60;;;11.07;;
19358;SDS011;9815;52.334;20.890;2022-12-07T06:34:47;22.87;;;11.80;;
19358;SDS011;9815;52.334;20.890;2022-12-07T06:37:15;29.13;;;13.40;;
19358;SDS011;9815;52.334;20.890;2022-12-07T06:39:43;29.17;;;13.37;;
19358;SDS011;9815;52.334;20.890;2022-12-07T06:42:13;26.33;;;12.50;;
19358;SDS011;9815;52.334;20.890;2022-12-07T06:44:41;32.57;;;13.27;;
19358;SDS011;9815;52.334;20.890;2022-12-07T06:47:09;38.17;;;13.00;;
19358;SDS011;9815;52.334;20.890;2022-12-07T06:49:57;36.27;;;13.37;;
19358;SDS011;9815;52.334;20.890;2022-12-07T06:52:26;35.53;;;13.07;;
19358;SDS011;9815;52.334;20.890;2022-12-07T06:54:54;42.37;;;13.40;;
19358;SDS011;9815;52.334;20.890;2022-12-07T06:57:24;54.33;;;16.23;;
19358;SDS011;9815;52.334;20.890;2022-12-07T06:59:52;48.60;;;16.13;;
19358;SDS011;9815;52.334;20.890;2022-12-07T07:02:20;42.80;;;14.57;;
19358;SDS011;9815;52.334;20.890;2022-12-07T07:04:48;35.80;;;12.73;;
19358;SDS011;9815;52.334;20.890;2022-12-07T07:07:16;29.47;;;12.37;;
19358;SDS011;9815;52.334;20.890;2022-12-07T07:09:44;30.53;;;11.03;;
19358;SDS011;9815;52.334;20.890;2022-12-07T07:12:12;28.13;;;11.07;;
19358;SDS011;9815;52.334;20.890;2022-12-07T07:14:41;25.90;;;10.77;;
19358;SDS011;9815;52.334;20.890;2022-12-07T07:17:09;24.03;;;10.67;;
19358;SDS011;9815;52.334;20.890;2022-12-07T07:19:37;28.17;;;11.27;;
19358;SDS011;9815;52.334;20.890;2022-12-07T07:22:06;31.27;;;11.17;;
19358;SDS011;9815;52.334;20.890;2022-12-07T07:24:34;26.90;;;10.80;;
19358;SDS011;9815;52.334;20.890;2022-12-07T07:27:02;23.17;;;10.40;;
19358;SDS011;9815;52.334;20.890;2022-12-07T07:29:30;23.20;;;10.60;;
19358;SDS011;9815;52.334;20.890;2022-12-07T07:32:00;23.70;;;10.80;;
19358;SDS011;9815;52.334;20.890;2022-12-07T07:34:32;21.63;;;10.73;;
19358;SDS011;9815;52.334;20.890;2022-12-07T07:37:00;27.53;;;11.63;;
19358;SDS011;9815;52.334;20.890;2022-12-07T07:39:28;19.47;;;9.73;;
19358;SDS011;9815;52.334;20.890;2022-12-07T07:41:56;24.33;;;10.77;;
19358;SDS011;9815;52.334;20.890;2022-12-07T07:44:26;20.57;;;11.23;;
19358;SDS011;9815;52.334;20.890;2022-12-07T07:47:02;19.43;;;10.03;;
19358;SDS011;9815;52.334;20.890;2022-12-07T07:49:30;25.30;;;11.13;;
19358;SDS011;9815;52.334;20.890;2022-12-07T07:51:58;26.93;;;11.77;;
19358;SDS011;9815;52.334;20.890;2022-12-07T07:54:26;23.67;;;11.73;;
19358;SDS011;9815;52.334;20.890;2022-12-07T07:56:54;25.27;;;11.43;;
19358;SDS011;9815;52.334;20.890;2022-12-07T07:59:22;29.23;;;11.50;;
19358;SDS011;9815;52.334;20.890;2022-12-07T08:01:50;20.67;;;10.97;;
19358;SDS011;9815;52.334;20.890;2022-12-07T08:04:20;29.77;;;11.97;;
19358;SDS011;9815;52.334;20.890;2022-12-07T08:06:48;22.70;;;11.30;;
19358;SDS011;9815;52.334;20.890;2022-12-07T08:09:16;30.20;;;12.90;;
19358;SDS011;9815;52.334;20.890;2022-12-07T08:11:44;35.90;;;15.60;;
19358;SDS011;9815;52.334;20.890;2022-12-07T08:14:12;27.20;;;13.33;;
19358;SDS011;9815;52.334;20.890;2022-12-07T08:16:40;33.80;;;16.07;;
19358;SDS011;9815;52.334;20.890;2022-12-07T08:19:08;36.87;;;15.40;;
19358;SDS011;9815;52.334;20.890;2022-12-07T08:21:38;32.63;;;14.10;;
19358;SDS011;9815;52.334;20.890;2022-12-07T08:24:06;106.57;;;42.10;;
19358;SDS011;9815;52.334;20.890;2022-12-07T08:26:34;34.90;;;16.17;;
19358;SDS011;9815;52.334;20.890;2022-12-07T08:29:02;34.13;;;15.07;;
19358;SDS011;9815;52.334;20.890;2022-12-07T08:31:30;33.73;;;14.60;;
19358;SDS011;9815;52.334;20.890;2022-12-07T08:33:58;105.90;;;35.97;;
19358;SDS011;9815;52.334;20.890;2022-12-07T08:36:26;37.77;;;15.90;;
19358;SDS011;9815;52.334;20.890;2022-12-07T08:38:56;34.00;;;14.77;;
19358;SDS011;9815;52.334;20.890;2022-12-07T08:41:44;46.83;;;16.97;;
19358;SDS011;9815;52.334;20.890;2022-12-07T08:44:12;47.93;;;16.80;;
19358;SDS011;9815;52.334;20.890;2022-12-07T08:46:41;114.27;;;40.00;;
19358;SDS011;9815;52.334;20.890;2022-12-07T08:49:15;44.33;;;16.90;;
19358;SDS011;9815;52.334;20.890;2022-12-07T08:51:45;41.10;;;17.40;;
19358;SDS011;9815;52.334;20.890;2022-12-07T08:54:16;37.03;;;16.73;;
19358;SDS011;9815;52.334;20.890;2022-12-07T08:56:46;37.77;;;15.13;;
19358;SDS011;9815;52.334;20.890;2022-12-07T08:59:24;38.77;;;16.53;;
19358;SDS011;9815;52.334;20.890;2022-12-07T09:01:53;40.57;;;16.03;;
19358;SDS011;9815;52.334;20.890;2022-12-07T09:04:21;51.53;;;24.47;;
19358;SDS011;9815;52.334;20.890;2022-12-07T09:06:49;38.63;;;16.30;;
19358;SDS011;9815;52.334;20.890;2022-12-07T09:09:19;40.80;;;16.53;;
19358;SDS011;9815;52.334;20.890;2022-12-07T09:11:47;48.43;;;18.37;;
19358;SDS011;9815;52.334;20.890;2022-12-07T09:14:15;48.73;;;18.30;;
19358;SDS011;9815;52.334;20.890;2022-12-07T09:16:43;52.10;;;20.87;;
19358;SDS011;9815;52.334;20.890;2022-12-07T09:19:11;90.07;;;40.07;;
19358;SDS011;9815;52.334;20.890;2022-12-07T09:21:39;43.37;;;19.70;;
19358;SDS011;9815;52.334;20.890;2022-12-07T09:24:07;57.03;;;22.53;;
19358;SDS011;9815;52.334;20.890;2022-12-07T09:26:37;40.23;;;16.37;;
19358;SDS011;9815;52.334;20.890;2022-12-07T09:29:06;47.27;;;18.37;;
19358;SDS011;9815;52.334;20.890;2022-12-07T09:31:35;40.70;;;16.13;;
19358;SDS011;9815;52.334;20.890;2022-12-07T09:34:04;42.70;;;15.70;;
19358;SDS011;9815;52.334;20.890;2022-12-07T09:36:33;66.83;;;30.40;;
19358;SDS011;9815;52.334;20.890;2022-12-07T09:39:01;40.87;;;14.30;;
19358;SDS011;9815;52.334;20.890;2022-12-07T09:41:31;39.37;;;14.63;;
19358;SDS011;9815;52.334;20.890;2022-12-07T09:44:04;38.97;;;13.70;;
19358;SDS011;9815;52.334;20.890;2022-12-07T09:46:34;45.60;;;17.40;;
19358;SDS011;9815;52.334;20.890;2022-12-07T09:49:05;42.73;;;16.27;;
19358;SDS011;9815;52.334;20.890;2022-12-07T09:51:38;54.90;;;22.87;;
19358;SDS011;9815;52.334;20.890;2022-12-07T09:54:07;46.13;;;20.07;;
19358;SDS011;9815;52.334;20.890;2022-12-07T09:56:38;72.13;;;27.80;;
19358;SDS011;9815;52.334;20.890;2022-12-07T09:59:12;41.90;;;17.43;;
19358;SDS011;9815;52.334;20.890;2022-12-07T10:01:44;45.20;;;16.80;;
19358;SDS011;9815;52.334;20.890;2022-12-07T10:04:15;47.87;;;14.73;;
19358;SDS011;9815;52.334;20.890;2022-12-07T10:06:47;39.87;;;14.00;;
19358;SDS011;9815;52.334;20.890;2022-12-07T10:09:18;35.07;;;13.13;;
19358;SDS011;9815;52.334;20.890;2022-12-07T10:11:58;40.10;;;14.77;;
19358;SDS011;9815;52.334;20.890;2022-12-07T10:14:33;37.00;;;14.10;;
19358;SDS011;9815;52.334;20.890;2022-12-07T10:17:29;38.30;;;12.30;;
19358;SDS011;9815;52.334;20.890;2022-12-07T10:20:12;30.23;;;12.30;;
19358;SDS011;9815;52.334;20.890;2022-12-07T10:22:57;25.93;;;10.80;;
19358;SDS011;9815;52.334;20.890;2022-12-07T10:25:28;30.63;;;11.07;;
19358;SDS011;9815;52.334;20.890;2022-12-07T10:28:00;31.17;;;11.27;;
19358;SDS011;9815;52.334;20.890;2022-12-07T10:30:32;30.93;;;11.43;;
19358;SDS011;9815;52.334;20.890;2022-12-07T10:33:16;32.70;;;11.80;;
19358;SDS011;9815;52.334;20.890;2022-12-07T10:36:00;40.43;;;12.70;;
19358;SDS011;9815;52.334;20.890;2022-12-07T10:38:44;35.80;;;14.60;;
19358;SDS011;9815;52.334;20.890;2022-12-07T10:41:13;37.80;;;13.77;;
19358;SDS011;9815;52.334;20.890;2022-12-07T10:43:51;65.70;;;23.07;;
19358;SDS011;9815;52.334;20.890;2022-12-07T10:46:36;45.73;;;17.47;;
19358;SDS011;9815;52.334;20.890;2022-12-07T10:49:23;41.60;;;14.20;;
19358;SDS011;9815;52.334;20.890;2022-12-07T10:52:14;38.50;;;13.67;;
19358;SDS011;9815;52.334;20.890;2022-12-07T10:54:55;39.00;;;13.83;;
19358;SDS011;9815;52.334;20.890;2022-12-07T10:57:39;41.10;;;14.70;;
19358;SDS011;9815;52.334;20.890;2022-12-07T11:00:17;48.67;;;16.93;;
19358;SDS011;9815;52.334;20.890;2022-12-07T11:02:59;42.80;;;15.00;;
19358;SDS011;9815;52.334;20.890;2022-12-07T11:05:45;39.43;;;13.53;;
19358;SDS011;9815;52.334;20.890;2022-12-07T11:08:21;40.03;;;14.70;;
19358;SDS011;9815;52.334;20.890;2022-12-07T11:10:59;34.23;;;13.53;;
19358;SDS011;9815;52.334;20.890;2022-12-07T11:13:34;35.07;;;14.60;;
19358;SDS011;9815;52.334;20.890;2022-12-07T11:19:10;33.33;;;14.30;;
19358;SDS011;9815;52.334;20.890;2022-12-07T11:21:58;33.70;;;13.90;;
19358;SDS011;9815;52.334;20.890;2022-12-07T11:24:31;34.50;;;15.00;;
19358;SDS011;9815;52.334;20.890;2022-12-07T11:27:11;34.30;;;13.77;;
19358;SDS011;9815;52.334;20.890;2022-12-07T11:29:51;33.43;;;14.40;;
19358;SDS011;9815;52.334;20.890;2022-12-07T11:32:34;35.53;;;15.43;;
19358;SDS011;9815;52.334;20.890;2022-12-07T11:35:16;28.17;;;13.63;;
19358;SDS011;9815;52.334;20.890;2022-12-07T11:37:50;32.43;;;15.13;;
19358;SDS011;9815;52.334;20.890;2022-12-07T11:40:24;30.67;;;14.43;;
19358;SDS011;9815;52.334;20.890;2022-12-07T11:42:57;32.80;;;14.77;;
19358;SDS011;9815;52.334;20.890;2022-12-07T11:45:30;33.87;;;15.87;;
19358;SDS011;9815;52.334;20.890;2022-12-07T11:48:01;32.20;;;14.17;;
19358;SDS011;9815;52.334;20.890;2022-12-07T11:50:34;32.97;;;15.17;;
19358;SDS011;9815;52.334;20.890;2022-12-07T11:53:10;28.80;;;14.77;;
19358;SDS011;9815;52.334;20.890;2022-12-07T11:55:47;31.07;;;15.00;;
19358;SDS011;9815;52.334;20.890;2022-12-07T11:58:34;29.93;;;14.33;;
19358;SDS011;9815;52.334;20.890;2022-12-07T12:01:22;31.70;;;15.43;;
19358;SDS011;9815;52.334;20.890;2022-12-07T12:03:58;33.13;;;15.10;;
19358;SDS011;9815;52.334;20.890;2022-12-07T12:06:35;35.13;;;15.87;;
19358;SDS011;9815;52.334;20.890;2022-12-07T12:09:04;40.33;;;16.17;;
19358;SDS011;9815;52.334;20.890;2022-12-07T12:12:14;33.93;;;15.37;;
19358;SDS011;9815;52.334;20.890;2022-12-07T12:15:16;28.47;;;14.13;;
19358;SDS011;9815;52.334;20.890;2022-12-07T12:17:57;29.93;;;13.47;;
19358;SDS011;9815;52.334;20.890;2022-12-07T12:20:40;33.63;;;15.03;;
19358;SDS011;9815;52.334;20.890;2022-12-07T12:23:13;29.70;;;14.10;;
19358;SDS011;9815;52.334;20.890;2022-12-07T12:25:46;29.27;;;14.63;;
19358;SDS011;9815;52.334;20.890;2022-12-07T12:28:18;29.23;;;14.40;;
19358;SDS011;9815;52.334;20.890;2022-12-07T12:33:38;29.67;;;15.27;;
19358;SDS011;9815;52.334;20.890;2022-12-07T12:36:22;27.93;;;14.47;;
19358;SDS011;9815;52.334;20.890;2022-12-07T12:39:11;29.33;;;13.37;;
19358;SDS011;9815;52.334;20.890;2022-12-07T12:41:51;29.83;;;13.43;;
19358;SDS011;9815;52.334;20.890;2022-12-07T12:50:31;27.40;;;13.57;;
19358;SDS011;9815;52.334;20.890;2022-12-07T12:53:04;25.83;;;13.03;;
19358;SDS011;9815;52.334;20.890;2022-12-07T12:55:46;31.63;;;15.10;;
19358;SDS011;9815;52.334;20.890;2022-12-07T12:58:47;30.40;;;13.83;;
19358;SDS011;9815;52.334;20.890;2022-12-07T13:04:24;30.23;;;14.23;;
19358;SDS011;9815;52.334;20.890;2022-12-07T13:07:11;32.00;;;13.80;;
19358;SDS011;9815;52.334;20.890;2022-12-07T13:10:01;27.67;;;13.80;;
19358;SDS011;9815;52.334;20.890;2022-12-07T13:12:31;27.00;;;13.03;;
19358;SDS011;9815;52.334;20.890;2022-12-07T13:14:59;26.17;;;13.63;;
19358;SDS011;9815;52.334;20.890;2022-12-07T13:23:24;23.53;;;11.87;;
19358;SDS011;9815;52.334;20.890;2022-12-07T13:25:56;22.90;;;11.30;;
19358;SDS011;9815;52.334;20.890;2022-12-07T13:28:47;33.33;;;12.67;;
19358;SDS011;9815;52.334;20.890;2022-12-07T13:31:23;25.23;;;11.60;;
19358;SDS011;9815;52.334;20.890;2022-12-07T13:33:58;23.53;;;11.70;;
19358;SDS011;9815;52.334;20.890;2022-12-07T13:36:28;24.13;;;12.10;;
19358;SDS011;9815;52.334;20.890;2022-12-07T13:39:14;24.37;;;12.53;;
19358;SDS011;9815;52.334;20.890;2022-12-07T13:41:49;27.53;;;12.63;;
19358;SDS011;9815;52.334;20.890;2022-12-07T13:44:20;25.27;;;12.63;;
19358;SDS011;9815;52.334;20.890;2022-12-07T13:46:50;30.47;;;13.57;;
19358;SDS011;9815;52.334;20.890;2022-12-07T13:49:25;27.80;;;12.20;;
19358;SDS011;9815;52.334;20.890;2022-12-07T13:51:55;25.07;;;11.87;;
19358;SDS011;9815;52.334;20.890;2022-12-07T13:54:43;20.40;;;10.90;;
19358;SDS011;9815;52.334;20.890;2022-12-07T13:57:12;24.03;;;11.33;;
19358;SDS011;9815;52.334;20.890;2022-12-07T13:59:42;31.90;;;12.63;;
19358;SDS011;9815;52.334;20.890;2022-12-07T14:02:17;31.63;;;13.30;;
19358;SDS011;9815;52.334;20.890;2022-12-07T14:04:48;31.27;;;12.90;;
19358;SDS011;9815;52.334;20.890;2022-12-07T14:07:19;27.37;;;12.53;;
19358;SDS011;9815;52.334;20.890;2022-12-07T14:09:56;23.83;;;11.83;;
19358;SDS011;9815;52.334;20.890;2022-12-07T14:12:26;24.00;;;12.67;;
19358;SDS011;9815;52.334;20.890;2022-12-07T14:14:58;27.03;;;14.47;;
19358;SDS011;9815;52.334;20.890;2022-12-07T14:17:28;31.33;;;14.57;;
19358;SDS011;9815;52.334;20.890;2022-12-07T14:19:56;29.10;;;14.27;;
19358;SDS011;9815;52.334;20.890;2022-12-07T14:22:30;25.10;;;13.27;;
19358;SDS011;9815;52.334;20.890;2022-12-07T14:25:14;28.23;;;14.33;;
19358;SDS011;9815;52.334;20.890;2022-12-07T14:27:50;29.27;;;14.13;;
19358;SDS011;9815;52.334;20.890;2022-12-07T14:30:24;32.27;;;14.90;;
19358;SDS011;9815;52.334;20.890;2022-12-07T14:32:57;29.53;;;13.80;;
19358;SDS011;9815;52.334;20.890;2022-12-07T14:35:27;31.93;;;14.27;;
19358;SDS011;9815;52.334;20.890;2022-12-07T14:37:56;31.90;;;14.97;;
19358;SDS011;9815;52.334;20.890;2022-12-07T14:40:25;24.20;;;12.10;;
19358;SDS011;9815;52.334;20.890;2022-12-07T14:42:55;25.17;;;12.77;;
19358;SDS011;9815;52.334;20.890;2022-12-07T14:45:29;22.03;;;11.50;;
19358;SDS011;9815;52.334;20.890;2022-12-07T14:47:58;25.10;;;11.03;;
19358;SDS011;9815;52.334;20.890;2022-12-07T14:50:48;28.10;;;11.40;;
19358;SDS011;9815;52.334;20.890;2022-12-07T14:53:39;27.13;;;11.03;;
19358;SDS011;9815;52.334;20.890;2022-12-07T14:56:11;27.50;;;11.43;;
19358;SDS011;9815;52.334;20.890;2022-12-07T14:58:39;24.30;;;10.93;;
19358;SDS011;9815;52.334;20.890;2022-12-07T15:01:09;22.03;;;10.63;;
19358;SDS011;9815;52.334;20.890;2022-12-07T15:03:37;23.90;;;11.63;;
19358;SDS011;9815;52.334;20.890;2022-12-07T15:06:05;25.57;;;12.10;;
19358;SDS011;9815;52.334;20.890;2022-12-07T15:08:35;26.63;;;12.40;;
19358;SDS011;9815;52.334;20.890;2022-12-07T15:11:03;30.10;;;12.83;;
19358;SDS011;9815;52.334;20.890;2022-12-07T15:13:32;27.17;;;12.57;;
19358;SDS011;9815;52.334;20.890;2022-12-07T15:16:19;24.00;;;12.17;;
19358;SDS011;9815;52.334;20.890;2022-12-07T15:19:19;25.73;;;12.57;;
19358;SDS011;9815;52.334;20.890;2022-12-07T15:22:00;25.07;;;13.50;;
19358;SDS011;9815;52.334;20.890;2022-12-07T15:24:29;24.33;;;13.07;;
19358;SDS011;9815;52.334;20.890;2022-12-07T15:27:03;30.47;;;14.33;;
19358;SDS011;9815;52.334;20.890;2022-12-07T15:29:34;31.00;;;14.33;;
19358;SDS011;9815;52.334;20.890;2022-12-07T15:32:04;28.33;;;15.87;;
19358;SDS011;9815;52.334;20.890;2022-12-07T15:34:34;33.80;;;16.80;;